カンゲルルススアーク の空港の天気 - METARとTAF

カンゲルルススアーク空港 ( BGSF / SFJ ) - グリーンランド カンゲルルススアーク
飛行場実況気象(Metar)
観測時間06/25 10:50 WGST (06/25 12:50 UTC)
風向・風速西北西 6m/s
視程-
天気現象弱いしゅう雨
全天の4割程度の雲 雲底高度 370m
全天の8割程度の雲 雲底高度 460m
全天を覆う雲 雲底高度 820m
気温5℃
湿度87%
気圧1003hPa
METARBGSF 251250Z AUTO 30011KT 9999NDV -SHRA SCT012/// BKN015/// OVC027/// 05/03 Q1003
過去の天気等 Google飛行場航空写真 Wunderground天気予報

過去48時間のMETAR

飛行場予報(TAF)
発表時間: 6/25 10:35 WGST (6/25 12:35 UTC)
予報対象時間: 25日10時 WGST ~ 26日16時 WGST
風向・風速西 5m/s
視程10km以上
全天の8割程度の雲 雲底高度 1220m
25日10時 WGST ~ 25日15時 WGST に一時的に
天気現象弱い雨
全天の8割程度の雲 雲底高度 370m
25日15時 WGST ~ 26日2時 WGST に一時的に
天気現象弱い雨
全天の4割程度の雲 雲底高度 370m
全天の8割程度の雲 雲底高度 550m
26日2時 WGST ~ 26日4時 WGST に徐々に
風向・風速東 4m/s
全天の4割程度の雲 雲底高度 1220m
26日4時 WGST ~ 26日10時 WGST に一時的に
全天の8割程度の雲 雲底高度 1070m
TAF AMD BGSF 251235Z 2512/2618 28010KT 9999 BKN040
TEMPO 2512/2517 -RA BKN012
TEMPO 2517/2604 -RA SCT012 BKN018
BECMG 2604/2606 08008KT SCT040
TEMPO 2606/2612 BKN035